createdAt,value
2022-08-05T00:01:35.595Z,23.55
2022-08-05T00:04:15.862Z,23.43
2022-08-05T00:06:43.319Z,23.35
2022-08-05T00:09:12.697Z,23.31
2022-08-05T00:11:48.355Z,23.34
2022-08-05T00:14:17.381Z,23.29
2022-08-05T00:16:53.627Z,23.23
2022-08-05T00:19:24.722Z,23.20
2022-08-05T00:21:52.057Z,23.16
2022-08-05T00:24:24.594Z,23.10
2022-08-05T00:26:58.559Z,23.07
2022-08-05T00:29:27.580Z,23.02
2022-08-05T00:32:13.477Z,23.10
2022-08-05T00:35:04.539Z,23.05
2022-08-05T00:37:50.399Z,23.00
2022-08-05T00:40:17.908Z,22.92
2022-08-05T00:42:55.068Z,22.81
2022-08-05T00:45:28.136Z,22.71
2022-08-05T00:48:10.067Z,22.63
2022-08-05T00:50:38.050Z,22.53
2022-08-05T00:53:09.744Z,22.42
2022-08-05T00:55:52.011Z,22.34
2022-08-05T00:58:19.351Z,22.32
2022-08-05T01:00:47.011Z,22.22
2022-08-05T01:03:22.665Z,22.15
2022-08-05T01:05:54.582Z,22.12
2022-08-05T01:08:40.111Z,22.12
2022-08-05T01:11:33.296Z,22.20
2022-08-05T01:14:08.807Z,22.31
2022-08-05T01:16:36.011Z,22.31
2022-08-05T01:19:16.361Z,22.35
2022-08-05T01:21:51.501Z,22.60
2022-08-05T01:24:30.709Z,22.52
2022-08-05T01:27:17.547Z,22.48
2022-08-05T01:29:49.533Z,22.27
2022-08-05T01:32:21.040Z,22.16
2022-08-05T01:34:51.006Z,22.08
2022-08-05T01:37:44.633Z,22.14
2022-08-05T01:40:12.875Z,21.97
2022-08-05T01:42:40.231Z,22.10
2022-08-05T01:45:08.453Z,22.12
2022-08-05T01:47:39.517Z,21.97
2022-08-05T01:50:16.024Z,21.81
2022-08-05T01:52:49.753Z,21.78
2022-08-05T01:55:19.961Z,21.75
2022-08-05T01:58:10.630Z,21.67
2022-08-05T02:00:37.437Z,21.52
2022-08-05T02:03:24.621Z,21.66
2022-08-05T02:06:00.880Z,21.61
2022-08-05T02:08:29.639Z,21.55
2022-08-05T02:11:16.063Z,21.72
2022-08-05T02:13:56.302Z,21.63
2022-08-05T02:16:27.568Z,21.74
2022-08-05T02:19:07.027Z,21.63
2022-08-05T02:21:43.134Z,21.52
2022-08-05T02:24:17.998Z,21.52
2022-08-05T02:27:10.280Z,21.48
2022-08-05T02:29:58.401Z,21.40
2022-08-05T02:32:30.963Z,21.30
2022-08-05T02:35:13.854Z,21.23
2022-08-05T02:37:47.762Z,21.19
2022-08-05T02:40:21.569Z,21.22
2022-08-05T02:42:52.994Z,21.17
2022-08-05T02:45:24.243Z,21.08
2022-08-05T02:48:06.555Z,21.03
2022-08-05T02:50:44.000Z,20.98
2022-08-05T02:53:16.093Z,21.01
2022-08-05T02:55:54.628Z,20.92
2022-08-05T02:58:27.488Z,20.84
2022-08-05T03:00:56.808Z,20.77
2022-08-05T03:03:24.177Z,20.74
2022-08-05T03:06:55.042Z,20.69
2022-08-05T03:08:42.613Z,20.67
2022-08-05T03:11:55.786Z,20.59
2022-08-05T03:14:09.589Z,20.55
2022-08-05T03:16:40.940Z,20.54
2022-08-05T03:19:17.067Z,20.58
2022-08-05T03:21:55.168Z,20.58
2022-08-05T03:24:23.646Z,20.52
2022-08-05T03:26:57.955Z,20.48
2022-08-05T03:29:24.891Z,20.47
2022-08-05T03:32:12.044Z,20.50
2022-08-05T03:34:42.335Z,20.45
2022-08-05T03:37:18.259Z,20.49
2022-08-05T03:40:01.094Z,20.44
2022-08-05T03:42:32.093Z,20.42
2022-08-05T03:45:01.495Z,20.44
2022-08-05T03:47:30.479Z,20.36
2022-08-05T03:50:02.393Z,20.37
2022-08-05T03:52:38.561Z,20.34
2022-08-05T03:56:05.391Z,20.28
2022-08-05T03:58:11.475Z,20.29
2022-08-05T04:00:41.927Z,20.41
2022-08-05T04:03:26.568Z,20.34
2022-08-05T04:05:55.914Z,20.36
2022-08-05T04:08:30.194Z,20.37
2022-08-05T04:11:04.281Z,20.37
2022-08-05T04:13:51.188Z,20.39
2022-08-05T04:16:24.388Z,20.47
2022-08-05T04:18:53.993Z,20.57
2022-08-05T04:22:08.392Z,20.79
2022-08-05T04:24:18.678Z,21.38
2022-08-05T04:26:46.822Z,22.09
2022-08-05T04:29:14.283Z,22.41
2022-08-05T04:31:42.915Z,22.48
2022-08-05T04:34:31.729Z,22.95
2022-08-05T04:36:57.132Z,23.55
2022-08-05T04:39:24.206Z,24.05
2022-08-05T04:41:54.354Z,24.68
2022-08-05T04:44:29.705Z,24.75
2022-08-05T04:46:58.476Z,25.20
2022-08-05T04:49:38.377Z,25.68
2022-08-05T04:52:12.944Z,26.50
2022-08-05T04:54:39.817Z,26.91
2022-08-05T04:57:06.671Z,26.92
2022-08-05T04:59:38.599Z,26.62
2022-08-05T05:02:36.766Z,27.29
2022-08-05T05:05:02.155Z,27.49
2022-08-05T05:07:32.373Z,27.21
2022-08-05T05:10:02.168Z,26.85
2022-08-05T05:12:29.972Z,27.35
2022-08-05T05:14:56.801Z,27.64
2022-08-05T05:17:55.423Z,27.69
2022-08-05T05:20:12.426Z,27.32
2022-08-05T05:22:40.924Z,27.54
2022-08-05T05:25:17.023Z,26.88
2022-08-05T05:27:48.659Z,27.03
2022-08-05T05:30:29.533Z,26.19
2022-08-05T05:33:00.919Z,25.60
2022-08-05T05:35:39.596Z,25.20
2022-08-05T05:38:08.902Z,25.05
2022-08-05T05:40:36.700Z,25.35
2022-08-05T05:43:03.620Z,25.18
2022-08-05T05:45:30.526Z,24.84
2022-08-05T05:48:06.292Z,24.69
2022-08-05T05:50:43.912Z,24.92
2022-08-05T05:53:21.104Z,25.23
2022-08-05T05:55:51.941Z,25.52
2022-08-05T05:58:31.731Z,25.73
2022-08-05T06:01:12.971Z,26.05
2022-08-05T06:04:01.272Z,26.44
2022-08-05T06:06:31.214Z,26.64
2022-08-05T06:09:00.264Z,26.67
2022-08-05T06:11:28.967Z,26.38
2022-08-05T06:13:56.537Z,26.15
2022-08-05T06:16:30.073Z,25.96
2022-08-05T06:19:01.820Z,25.78
2022-08-05T06:21:35.999Z,25.51
2022-08-05T06:24:12.233Z,25.35
2022-08-05T06:26:51.406Z,25.21
2022-08-05T06:29:42.838Z,25.29
2022-08-05T06:32:21.321Z,25.35
2022-08-05T06:34:57.244Z,25.36
2022-08-05T06:37:56.461Z,25.32
2022-08-05T06:40:20.629Z,25.36
2022-08-05T06:42:52.287Z,25.74
2022-08-05T06:45:20.708Z,25.93
2022-08-05T06:48:37.246Z,25.75
2022-08-05T06:50:35.482Z,25.93
2022-08-05T06:53:11.244Z,25.83
2022-08-05T06:55:41.993Z,25.96
2022-08-05T06:58:20.196Z,26.04
2022-08-05T07:01:00.293Z,26.11
2022-08-05T07:03:32.405Z,26.03
2022-08-05T07:06:06.137Z,26.18
2022-08-05T07:08:47.296Z,26.37
2022-08-05T07:11:22.172Z,26.32
2022-08-05T07:14:20.553Z,26.46
2022-08-05T07:17:59.113Z,26.64
2022-08-05T07:20:31.212Z,26.87
2022-08-05T07:22:35.119Z,26.99
2022-08-05T07:25:23.655Z,27.00
2022-08-05T07:27:57.161Z,27.17
2022-08-05T07:30:38.725Z,27.17
2022-08-05T07:33:09.938Z,27.35
2022-08-05T08:57:11.541Z,30.96
2022-08-05T08:59:41.671Z,30.84
2022-08-05T09:02:14.722Z,30.89
2022-08-05T09:04:58.250Z,31.11
2022-08-05T09:07:39.826Z,31.17
2022-08-05T09:10:19.079Z,31.27
2022-08-05T09:12:46.063Z,31.13
2022-08-05T09:15:18.186Z,31.11
2022-08-05T09:17:49.783Z,31.46
2022-08-05T09:20:36.354Z,31.40
2022-08-05T09:23:19.057Z,31.48
2022-08-05T09:26:01.420Z,31.45
2022-08-05T09:28:33.553Z,31.72
2022-08-05T09:31:22.732Z,31.94
2022-08-05T09:33:53.142Z,31.91
2022-08-05T09:36:20.613Z,31.92
2022-08-05T09:39:01.109Z,31.86
2022-08-05T09:41:33.174Z,31.71
2022-08-05T09:44:06.083Z,31.96
2022-08-05T09:46:35.077Z,32.28
2022-08-05T09:49:19.523Z,32.33
2022-08-05T09:51:49.924Z,32.51
2022-08-05T09:54:21.464Z,32.43
2022-08-05T09:56:57.494Z,32.41
2022-08-05T09:59:28.425Z,32.28
2022-08-05T10:01:58.533Z,32.28
2022-08-05T10:04:35.034Z,32.63
2022-08-05T10:07:14.133Z,32.83
2022-08-05T10:10:13.854Z,32.87
2022-08-05T10:12:53.021Z,33.04
2022-08-05T10:15:49.369Z,32.99
2022-08-05T10:18:20.370Z,32.97
2022-08-05T10:20:51.112Z,32.80
2022-08-05T10:23:59.235Z,33.01
2022-08-05T10:26:56.477Z,33.20
2022-08-05T10:30:07.024Z,33.37
2022-08-05T10:32:52.721Z,33.41
2022-08-05T10:36:12.024Z,33.57
2022-08-05T10:38:54.299Z,33.52
2022-08-05T10:42:18.941Z,33.45
2022-08-05T10:45:42.054Z,33.29
2022-08-05T10:48:56.501Z,33.33
2022-08-05T10:55:16.136Z,33.54
2022-08-05T10:58:14.931Z,33.80
2022-08-05T11:00:47.177Z,33.87
2022-08-05T11:03:52.323Z,33.92
2022-08-05T11:07:01.474Z,34.18
2022-08-05T11:09:46.189Z,34.11
2022-08-05T11:12:42.426Z,33.96
2022-08-05T11:16:01.217Z,33.35
2022-08-05T11:20:16.683Z,33.56
2022-08-05T11:33:43.815Z,33.85
2022-08-05T11:40:02.980Z,33.66
2022-08-05T11:42:32.120Z,33.55
2022-08-05T11:46:14.553Z,33.83
2022-08-05T11:48:16.170Z,34.04
2022-08-05T11:50:57.902Z,34.19
2022-08-05T11:53:53.312Z,34.26
2022-08-05T12:14:43.237Z,34.56
2022-08-05T12:18:00.763Z,34.60
2022-08-05T12:20:16.702Z,34.82
2022-08-05T12:22:48.382Z,35.27
2022-08-05T12:25:18.865Z,35.20
2022-08-05T12:27:52.987Z,34.80
2022-08-05T12:30:22.606Z,34.70
2022-08-05T12:33:07.165Z,34.62
2022-08-05T12:35:45.842Z,34.88
2022-08-05T12:38:15.249Z,35.22
2022-08-05T12:40:42.227Z,35.42
2022-08-05T12:43:11.762Z,35.56
2022-08-05T12:45:54.090Z,35.54
2022-08-05T12:48:32.188Z,35.39
2022-08-05T12:52:13.810Z,35.23
2022-08-05T12:54:33.028Z,34.98
2022-08-05T12:57:02.114Z,35.38
2022-08-05T13:00:09.057Z,35.58
2022-08-05T13:02:30.683Z,35.62
2022-08-05T13:04:57.755Z,35.39
2022-08-05T13:07:55.948Z,35.65
2022-08-05T13:10:14.682Z,35.77
2022-08-05T13:12:57.175Z,35.53
2022-08-05T13:15:41.129Z,35.69
2022-08-05T13:18:19.741Z,35.10
2022-08-05T13:20:47.634Z,35.34
2022-08-05T13:23:17.991Z,35.49
2022-08-05T13:25:51.805Z,35.51
2022-08-05T13:28:27.150Z,35.56
2022-08-05T13:30:54.091Z,35.68
2022-08-05T13:34:21.230Z,35.78
2022-08-05T13:36:09.167Z,35.90
2022-08-05T13:38:42.384Z,36.10
2022-08-05T13:41:11.496Z,36.32
2022-08-05T13:43:45.890Z,36.32
2022-08-05T13:46:43.734Z,35.91
2022-08-05T13:49:12.992Z,35.88
2022-08-05T13:51:46.318Z,35.45
2022-08-05T13:54:15.467Z,35.60
2022-08-05T13:56:45.415Z,35.70
2022-08-05T13:59:24.134Z,35.91
2022-08-05T14:01:59.097Z,35.82
2022-08-05T14:04:55.543Z,35.67
2022-08-05T14:07:56.270Z,35.93
2022-08-05T14:10:13.512Z,35.99
2022-08-05T14:12:42.618Z,35.63
2022-08-05T14:16:05.347Z,35.78
2022-08-05T14:17:59.657Z,35.81
2022-08-05T14:20:28.334Z,36.02
2022-08-05T14:22:55.870Z,36.06
2022-08-05T14:25:28.239Z,36.24
2022-08-05T14:27:58.386Z,36.11
2022-08-05T14:30:26.606Z,35.82
2022-08-05T14:32:54.890Z,35.71
2022-08-05T14:35:23.757Z,36.00
2022-08-05T14:38:04.532Z,35.84
2022-08-05T14:40:31.362Z,35.89
2022-08-05T14:42:58.436Z,36.11
2022-08-05T14:45:25.867Z,36.13
2022-08-05T14:48:05.084Z,35.90
2022-08-05T14:50:33.351Z,35.94
2022-08-05T14:53:07.122Z,35.84
2022-08-05T14:55:39.117Z,35.15
2022-08-05T14:58:11.279Z,35.46
2022-08-05T15:00:58.388Z,35.52
2022-08-05T15:03:33.251Z,35.01
2022-08-05T15:06:07.858Z,35.35
2022-08-05T15:09:01.541Z,35.25
2022-08-05T15:11:52.564Z,35.24
2022-08-05T15:14:34.871Z,35.68
2022-08-05T15:17:09.831Z,36.08
2022-08-05T15:19:56.252Z,36.15
2022-08-05T15:22:27.454Z,36.27
2022-08-05T15:24:55.986Z,36.24
2022-08-05T15:27:25.525Z,36.95
2022-08-05T15:29:56.680Z,38.80
2022-08-05T15:32:26.930Z,40.79
2022-08-05T15:34:56.201Z,41.13
2022-08-05T15:38:32.282Z,41.42
2022-08-05T15:41:03.538Z,42.13
2022-08-05T15:43:09.283Z,41.16
2022-08-05T15:45:45.710Z,41.34
2022-08-05T15:48:14.423Z,40.69
2022-08-05T15:50:41.600Z,41.41
2022-08-05T15:53:12.775Z,42.05
2022-08-05T15:56:02.706Z,41.52
2022-08-05T15:58:28.671Z,41.79
2022-08-05T16:01:11.672Z,41.63
2022-08-05T16:03:42.887Z,41.73
2022-08-05T16:06:11.476Z,41.19
2022-08-05T16:08:38.739Z,42.21
2022-08-05T16:11:07.933Z,42.22
2022-08-05T16:13:35.389Z,40.92
2022-08-05T16:16:03.370Z,40.43
2022-08-05T16:18:33.129Z,41.03
2022-08-05T16:21:04.127Z,40.55
2022-08-05T16:23:32.840Z,41.07
2022-08-05T16:26:26.267Z,42.79
2022-08-05T16:28:54.419Z,43.15
2022-08-05T16:31:21.655Z,43.12
2022-08-05T16:33:48.820Z,43.40
2022-08-05T16:36:20.504Z,42.70
2022-08-05T16:38:54.477Z,42.63
2022-08-05T16:42:14.448Z,40.06
2022-08-05T16:44:09.710Z,42.20
2022-08-05T16:46:38.698Z,42.90
2022-08-05T16:49:09.934Z,42.92
2022-08-05T16:51:50.242Z,42.89
2022-08-05T16:54:25.745Z,42.98
2022-08-05T16:56:55.747Z,42.85
2022-08-05T16:59:22.993Z,42.75
2022-08-05T17:01:52.728Z,42.50
2022-08-05T17:04:22.165Z,42.04
2022-08-05T17:06:53.591Z,41.93
2022-08-05T17:09:21.017Z,41.83
2022-08-05T17:11:52.367Z,42.19
2022-08-05T17:14:22.505Z,42.73
2022-08-05T17:17:02.683Z,41.43
2022-08-05T17:19:29.588Z,42.03
2022-08-05T17:21:57.654Z,41.38
2022-08-05T17:24:33.963Z,41.88
2022-08-05T17:27:06.011Z,41.41
2022-08-05T17:29:41.230Z,39.26
2022-08-05T17:32:11.498Z,37.43
2022-08-05T17:34:43.654Z,36.18
2022-08-05T17:37:27.336Z,35.41
2022-08-05T17:40:00.006Z,34.78
2022-08-05T17:42:31.991Z,34.43
2022-08-05T17:45:17.863Z,34.09
2022-08-05T17:47:53.527Z,33.75
2022-08-05T17:50:28.910Z,33.46
2022-08-05T17:53:01.498Z,33.25
2022-08-05T17:55:34.540Z,32.96
2022-08-05T17:58:12.216Z,32.71
2022-08-05T18:00:44.912Z,32.53
2022-08-05T18:03:24.150Z,32.61
2022-08-05T18:06:04.742Z,32.45
2022-08-05T18:08:34.853Z,32.35
2022-08-05T18:11:03.205Z,32.14
2022-08-05T18:13:36.937Z,31.90
2022-08-05T18:16:14.628Z,31.69
2022-08-05T18:19:04.850Z,31.49
2022-08-05T18:22:09.470Z,31.37
2022-08-05T18:24:36.941Z,31.34
2022-08-05T18:27:12.685Z,31.38
2022-08-05T18:29:53.601Z,31.51
2022-08-05T18:32:28.284Z,31.48
2022-08-05T18:35:14.096Z,31.44
2022-08-05T18:37:42.299Z,31.27
2022-08-05T18:40:34.095Z,31.23
2022-08-05T18:43:17.083Z,31.14
2022-08-05T18:45:55.196Z,31.26
2022-08-05T18:48:33.969Z,31.06
2022-08-05T18:52:05.715Z,30.99
2022-08-05T18:54:12.904Z,31.00
2022-08-05T18:56:40.107Z,31.04
2022-08-05T18:59:44.228Z,31.01
2022-08-05T19:01:58.179Z,30.98
2022-08-05T19:04:25.989Z,30.95
2022-08-05T19:06:53.509Z,30.88
2022-08-05T19:09:21.314Z,30.89
2022-08-05T19:12:00.249Z,30.81
2022-08-05T19:14:59.328Z,30.75
2022-08-05T19:17:16.483Z,30.68
2022-08-05T19:19:46.976Z,30.57
2022-08-05T19:22:17.068Z,30.48
2022-08-05T19:24:56.127Z,30.36
2022-08-05T19:27:27.815Z,30.28
2022-08-05T19:29:57.889Z,30.22
2022-08-05T19:32:26.159Z,30.17
2022-08-05T19:34:55.799Z,30.09
2022-08-05T19:37:30.049Z,29.91
2022-08-05T19:40:10.930Z,29.91
2022-08-05T19:42:38.779Z,29.80
2022-08-05T19:45:07.275Z,29.72
2022-08-05T19:47:37.667Z,29.61
2022-08-05T19:50:06.190Z,29.49
2022-08-05T19:52:34.951Z,29.56
2022-08-05T19:55:06.586Z,29.63
2022-08-05T19:57:47.373Z,29.71
2022-08-05T20:00:21.240Z,29.65
2022-08-05T20:02:48.102Z,29.65
2022-08-05T20:05:16.624Z,29.59
2022-08-05T20:07:56.336Z,29.46
2022-08-05T20:10:25.957Z,29.43
2022-08-05T20:12:52.969Z,29.39
2022-08-05T20:15:48.529Z,29.27
2022-08-05T20:18:10.906Z,29.16
2022-08-05T20:20:56.478Z,29.00
2022-08-05T20:23:40.033Z,28.86
2022-08-05T20:26:15.280Z,28.90
2022-08-05T20:28:44.881Z,28.83
2022-08-05T20:31:11.784Z,28.86
2022-08-05T20:33:38.721Z,28.85
2022-08-05T20:36:10.226Z,28.76
2022-08-05T20:38:53.152Z,28.73
2022-08-05T20:41:23.895Z,28.57
2022-08-05T20:44:00.374Z,28.48
2022-08-05T20:46:33.633Z,28.43
2022-08-05T20:49:00.481Z,28.49
2022-08-05T20:51:29.906Z,28.47
2022-08-05T20:54:01.182Z,28.31
2022-08-05T20:56:31.867Z,28.13
2022-08-05T20:59:11.221Z,28.05
2022-08-05T21:01:46.968Z,27.89
2022-08-05T21:04:14.314Z,27.79
2022-08-05T21:06:45.824Z,27.66
2022-08-05T21:09:14.302Z,27.52
2022-08-05T21:12:06.988Z,27.43
2022-08-05T21:14:34.840Z,27.33
2022-08-05T21:17:05.905Z,27.22
2022-08-05T21:19:46.611Z,27.14
2022-08-05T21:22:18.562Z,27.08
2022-08-05T21:24:51.634Z,27.07
2022-08-05T21:27:20.556Z,27.01
2022-08-05T21:29:51.935Z,26.93
2022-08-05T21:32:20.949Z,26.87
2022-08-05T21:35:09.134Z,26.83
2022-08-05T21:37:41.423Z,26.79
2022-08-05T21:40:13.158Z,26.84
2022-08-05T21:42:44.804Z,27.00
2022-08-05T21:45:13.716Z,27.00
2022-08-05T21:47:57.111Z,26.96
2022-08-05T21:50:27.615Z,26.91
2022-08-05T21:52:59.032Z,26.88
2022-08-05T21:55:43.077Z,26.87
2022-08-05T21:58:19.536Z,26.94
2022-08-05T22:00:51.470Z,27.14
2022-08-05T22:03:20.536Z,27.28
2022-08-05T22:06:06.489Z,27.33
2022-08-05T22:08:35.309Z,27.25
2022-08-05T22:11:02.251Z,27.32
2022-08-05T22:14:34.175Z,27.28
2022-08-05T22:16:41.477Z,27.24
2022-08-05T22:19:56.039Z,27.14
2022-08-05T22:21:54.668Z,27.02
2022-08-05T22:24:52.074Z,26.89
2022-08-05T22:28:09.704Z,26.81
2022-08-05T22:30:32.295Z,26.68
2022-08-05T22:33:04.058Z,26.55
2022-08-05T22:35:48.032Z,26.42
2022-08-05T22:38:16.872Z,26.34
2022-08-05T22:40:50.087Z,26.29
2022-08-05T22:43:37.432Z,26.32
2022-08-05T22:46:13.434Z,26.33
2022-08-05T22:48:50.042Z,26.28
2022-08-05T22:51:23.243Z,26.22
2022-08-05T22:54:04.099Z,26.14
2022-08-05T22:56:31.398Z,26.11
2022-08-05T22:59:04.156Z,26.04
2022-08-05T23:02:04.123Z,26.10
2022-08-05T23:04:32.378Z,26.11
2022-08-05T23:06:59.323Z,26.12
2022-08-05T23:09:28.043Z,26.04
2022-08-05T23:12:13.250Z,25.93
2022-08-05T23:14:40.151Z,25.85
2022-08-05T23:17:34.613Z,25.78
2022-08-05T23:20:06.404Z,25.71
2022-08-05T23:22:43.840Z,25.89
2022-08-05T23:25:17.080Z,25.96
2022-08-05T23:30:53.322Z,25.87
2022-08-05T23:33:25.811Z,25.80
2022-08-05T23:36:06.269Z,25.66
2022-08-05T23:38:36.998Z,25.60
2022-08-05T23:41:03.978Z,25.48
2022-08-05T23:44:02.980Z,25.38
2022-08-05T23:46:20.593Z,25.30
2022-08-05T23:49:00.919Z,25.18
2022-08-05T23:51:52.728Z,25.06
2022-08-05T23:54:25.969Z,25.14
2022-08-05T23:56:58.296Z,25.35
